Flight Track Log - Related Links

Times and Time Zones

All times are in EDT time to prevent confusion due to time zone crossing. See the N423S flight status page for this flight to view local times or setup timezone preferences in your user account.


Time Position Orientation Groundspeed Altitude Reporting Facility
EDT Latitude Longitude Course Direction KTS MPH feet Rate Location/Type
Sun 10:39:12 AM 40.9319 -85.1683 146° Southeast 110 127 2,800  Level Chicago Center
Sun 10:40:14 AM 40.9081 -85.1431 141° Southeast 109 125 3,500 677 Climbing Chicago Center
Sun 10:41:16 AM 40.8828 -85.1183 144° Southeast 111 128 4,200 677 Climbing Chicago Center
Sun 10:42:18 AM 40.8578 -85.0947 144° Southeast 112 129 4,900 387 Climbing Chicago Center
Sun 10:43:00 AM 40.7726 -85.0055 146° Southeast  Level Estimated
Sun 10:43:20 AM 40.8311 -85.0708 146° Southeast 114 131 5,000  Level Chicago Center
Sun 10:44:00 AM 40.7380 -84.9744 146° Southeast  Level FlightAware Approximate
Sun 10:44:21 AM 40.7981 -85.0244 133° Southeast 155 178 5,000  Level Chicago Center
Sun 10:45:23 AM 40.7617 -84.9886 143° Southeast 157 181 5,000  Level Chicago Center
Sun 10:46:25 AM 40.7272 -84.9514 141° Southeast 161 185 5,000  Level Chicago Center
Sun 10:47:27 AM 40.6900 -84.9206 148° Southeast 159 183 5,000  Level Chicago Center
Sun 10:48:28 AM 40.6542 -84.8853 143° Southeast 160 184 5,000  Level Chicago Center
Sun 10:49:30 AM 40.6194 -84.8478 141° Southeast 161 185 5,000  Level Chicago Center
Sun 10:50:32 AM 40.5817 -84.8172 148° Southeast 161 185 5,000  Level Chicago Center
Sun 10:51:33 AM 40.5361 -84.7803 148° Southeast 160 184 5,000  Level Chicago Center
Sun 10:52:47 AM 40.4944 -84.7461 148° Southeast 162 186 5,000  Level Indianapolis Center
Sun 10:53:49 AM 40.4581 -84.7119 144° Southeast 162 186 5,000  Level Indianapolis Center
Sun 10:54:40 AM 40.4211 -84.6781 145° Southeast 163 188 5,000 -57 Level Indianapolis Center
Sun 10:55:35 AM 40.3867 -84.6467 145° Southeast 163 188 4,900 -246 Descending Indianapolis Center
Sun 10:56:42 AM 40.3422 -84.6108 148° Southeast 173 199 4,500 -385 Descending Indianapolis Center
Sun 10:57:24 AM 40.3156 -84.5839 142° Southeast 176 203 4,200 -405 Descending Indianapolis Center
Sun 10:57:56 AM 40.2964 -84.5658 144° Southeast 172 198 4,000 -82 Descending Indianapolis Center
Sun 10:58:37 AM 40.2750 -84.5325 130° Southeast 165 190 4,100 63 Climbing Indianapolis Center
Sun 10:59:32 AM 40.2453 -84.4939 135° Southeast 157 181 4,100  Level Indianapolis Center
Sun 11:00:33 AM 40.2114 -84.4575 141° Southeast 158 182 4,100  Level Indianapolis Center
Sun 11:01:40 AM 40.1742 -84.4122 137° Southeast 159 183 4,100 -281 Level Indianapolis Center
Sun 11:02:41 AM 40.1383 -84.3728 140° Southeast 171 197 3,500 -545 Descending Indianapolis Center
Sun 11:03:30 AM 40.1081 -84.3428 143° Southeast 180 207 3,100 -279 Descending Indianapolis Center
Sun 11:04:07 AM 40.0856 -84.3158 137° Southeast 173 199 3,100  Level Indianapolis Center
Sun 11:05:09 AM 40.0544 -84.2775 137° Southeast 166 191 3,100 -41 Level Indianapolis Center
Sun 11:06:33 AM 40.0086 -84.2289 141° Southeast 139 160 3,000 -145 Descending Indianapolis Center
Sun 11:07:13 AM 39.9942 -84.2197 154° Southeast 136 157 2,800 -529 Descending Indianapolis Center
Sun 11:08:15 AM 39.9653 -84.2139 171° South 119 137 2,100 -532 Descending Indianapolis Center
Sun 11:09:17 AM 39.9333 -84.2136 180° South 111 128 1,700 -387 Descending Indianapolis Center
Sun 11:11:00 AM 39.9046 -84.2167 180° South  Level FlightAware Approximate

Login

Don't have an account? Register now (free) for customized features, flight alerts, and more!